sensor_id;sensor_type;location;lat;lon;timestamp;temperature;humidity
73643;DHT22;61938;48.652;9.292;2024-02-28T00:02:08;7.70;99.90
73643;DHT22;61938;48.652;9.292;2024-02-28T00:04:33;7.70;99.90
73643;DHT22;61938;48.652;9.292;2024-02-28T00:06:59;7.70;99.90
73643;DHT22;61938;48.652;9.292;2024-02-28T00:09:24;7.70;99.90
73643;DHT22;61938;48.652;9.292;2024-02-28T00:11:50;7.70;99.90
73643;DHT22;61938;48.652;9.292;2024-02-28T00:14:15;7.70;99.90
73643;DHT22;61938;48.652;9.292;2024-02-28T00:16:45;7.70;99.90
73643;DHT22;61938;48.652;9.292;2024-02-28T00:19:12;7.70;99.90
73643;DHT22;61938;48.652;9.292;2024-02-28T00:21:41;7.70;99.90
73643;DHT22;61938;48.652;9.292;2024-02-28T00:24:07;7.70;99.90
73643;DHT22;61938;48.652;9.292;2024-02-28T00:26:33;7.70;99.90
73643;DHT22;61938;48.652;9.292;2024-02-28T00:28:58;7.70;99.90
73643;DHT22;61938;48.652;9.292;2024-02-28T00:31:24;7.60;99.90
73643;DHT22;61938;48.652;9.292;2024-02-28T00:33:50;7.70;99.90
73643;DHT22;61938;48.652;9.292;2024-02-28T00:36:15;7.70;99.90
73643;DHT22;61938;48.652;9.292;2024-02-28T00:38:41;7.70;99.90
73643;DHT22;61938;48.652;9.292;2024-02-28T00:41:07;7.60;99.90
73643;DHT22;61938;48.652;9.292;2024-02-28T00:43:32;7.60;99.90
73643;DHT22;61938;48.652;9.292;2024-02-28T00:45:58;7.60;99.90
73643;DHT22;61938;48.652;9.292;2024-02-28T00:48:24;7.60;99.90
73643;DHT22;61938;48.652;9.292;2024-02-28T00:50:50;7.60;99.90
73643;DHT22;61938;48.652;9.292;2024-02-28T00:53:16;7.60;99.90
73643;DHT22;61938;48.652;9.292;2024-02-28T00:55:42;7.60;99.90
73643;DHT22;61938;48.652;9.292;2024-02-28T00:58:07;7.60;99.90
73643;DHT22;61938;48.652;9.292;2024-02-28T01:00:33;7.60;99.90
73643;DHT22;61938;48.652;9.292;2024-02-28T01:02:58;7.60;99.90
73643;DHT22;61938;48.652;9.292;2024-02-28T01:05:24;7.60;99.90
73643;DHT22;61938;48.652;9.292;2024-02-28T01:07:49;7.60;99.90
73643;DHT22;61938;48.652;9.292;2024-02-28T01:10:15;7.60;99.90
73643;DHT22;61938;48.652;9.292;2024-02-28T01:12:40;9.30;99.90
73643;DHT22;61938;48.652;9.292;2024-02-28T01:15:06;7.60;99.90
73643;DHT22;61938;48.652;9.292;2024-02-28T01:17:32;7.60;99.90
73643;DHT22;61938;48.652;9.292;2024-02-28T01:19:58;7.60;99.90
73643;DHT22;61938;48.652;9.292;2024-02-28T01:22:24;7.60;99.90
73643;DHT22;61938;48.652;9.292;2024-02-28T01:24:49;7.60;99.90
73643;DHT22;61938;48.652;9.292;2024-02-28T01:27:15;7.60;99.90
73643;DHT22;61938;48.652;9.292;2024-02-28T01:29:40;7.60;99.90
73643;DHT22;61938;48.652;9.292;2024-02-28T01:32:06;7.60;99.90
73643;DHT22;61938;48.652;9.292;2024-02-28T01:34:31;7.60;99.90
73643;DHT22;61938;48.652;9.292;2024-02-28T01:36:57;7.50;99.90
73643;DHT22;61938;48.652;9.292;2024-02-28T01:39:23;7.50;99.90
73643;DHT22;61938;48.652;9.292;2024-02-28T01:41:52;7.50;99.90
73643;DHT22;61938;48.652;9.292;2024-02-28T01:44:18;7.50;99.90
73643;DHT22;61938;48.652;9.292;2024-02-28T01:46:43;7.50;99.90
73643;DHT22;61938;48.652;9.292;2024-02-28T01:49:09;7.50;99.90
73643;DHT22;61938;48.652;9.292;2024-02-28T01:51:35;7.50;99.90
73643;DHT22;61938;48.652;9.292;2024-02-28T01:54:01;7.50;99.90
73643;DHT22;61938;48.652;9.292;2024-02-28T01:56:27;7.50;99.90
73643;DHT22;61938;48.652;9.292;2024-02-28T01:58:59;7.50;99.90
73643;DHT22;61938;48.652;9.292;2024-02-28T02:01:26;7.50;99.90
73643;DHT22;61938;48.652;9.292;2024-02-28T02:03:51;7.50;99.90
73643;DHT22;61938;48.652;9.292;2024-02-28T02:06:17;7.50;99.90
73643;DHT22;61938;48.652;9.292;2024-02-28T02:08:43;7.50;99.90
73643;DHT22;61938;48.652;9.292;2024-02-28T02:11:09;7.50;99.90
73643;DHT22;61938;48.652;9.292;2024-02-28T02:13:34;7.50;99.90
73643;DHT22;61938;48.652;9.292;2024-02-28T02:16:01;7.50;99.90
73643;DHT22;61938;48.652;9.292;2024-02-28T02:18:26;7.50;99.90
73643;DHT22;61938;48.652;9.292;2024-02-28T02:20:56;7.50;99.90
73643;DHT22;61938;48.652;9.292;2024-02-28T02:23:24;7.50;99.90
73643;DHT22;61938;48.652;9.292;2024-02-28T02:25:49;7.50;99.90
73643;DHT22;61938;48.652;9.292;2024-02-28T02:28:15;7.50;99.90
73643;DHT22;61938;48.652;9.292;2024-02-28T02:30:41;7.50;99.90
73643;DHT22;61938;48.652;9.292;2024-02-28T02:33:07;7.50;99.90
73643;DHT22;61938;48.652;9.292;2024-02-28T02:35:34;7.50;99.90
73643;DHT22;61938;48.652;9.292;2024-02-28T02:38:00;7.50;99.90
73643;DHT22;61938;48.652;9.292;2024-02-28T02:40:25;7.50;99.90
73643;DHT22;61938;48.652;9.292;2024-02-28T02:42:51;7.50;99.90
73643;DHT22;61938;48.652;9.292;2024-02-28T02:45:17;7.50;99.90
73643;DHT22;61938;48.652;9.292;2024-02-28T02:47:42;7.50;99.90
73643;DHT22;61938;48.652;9.292;2024-02-28T02:50:11;7.50;99.90
73643;DHT22;61938;48.652;9.292;2024-02-28T02:52:36;7.50;99.90
73643;DHT22;61938;48.652;9.292;2024-02-28T02:55:02;7.50;99.90
73643;DHT22;61938;48.652;9.292;2024-02-28T02:57:28;7.50;99.90
73643;DHT22;61938;48.652;9.292;2024-02-28T02:59:56;7.40;99.90
73643;DHT22;61938;48.652;9.292;2024-02-28T03:02:21;7.40;99.90
73643;DHT22;61938;48.652;9.292;2024-02-28T03:04:47;7.40;99.90
73643;DHT22;61938;48.652;9.292;2024-02-28T03:07:12;7.40;99.90
73643;DHT22;61938;48.652;9.292;2024-02-28T03:09:38;7.40;99.90
73643;DHT22;61938;48.652;9.292;2024-02-28T03:12:04;7.40;99.90
73643;DHT22;61938;48.652;9.292;2024-02-28T03:14:29;7.40;99.90
73643;DHT22;61938;48.652;9.292;2024-02-28T03:16:55;7.40;99.90
73643;DHT22;61938;48.652;9.292;2024-02-28T03:19:20;7.40;99.90
73643;DHT22;61938;48.652;9.292;2024-02-28T03:21:46;7.40;99.90
73643;DHT22;61938;48.652;9.292;2024-02-28T03:24:12;7.40;99.90
73643;DHT22;61938;48.652;9.292;2024-02-28T03:26:44;7.40;99.90
73643;DHT22;61938;48.652;9.292;2024-02-28T03:29:09;7.40;99.90
73643;DHT22;61938;48.652;9.292;2024-02-28T03:31:35;7.40;99.90
73643;DHT22;61938;48.652;9.292;2024-02-28T03:34:01;7.40;99.90
73643;DHT22;61938;48.652;9.292;2024-02-28T03:36:28;7.30;99.90
73643;DHT22;61938;48.652;9.292;2024-02-28T03:38:54;7.30;99.90
73643;DHT22;61938;48.652;9.292;2024-02-28T03:41:19;7.30;99.90
73643;DHT22;61938;48.652;9.292;2024-02-28T03:43:45;7.30;99.90
73643;DHT22;61938;48.652;9.292;2024-02-28T03:46:10;7.30;99.90
73643;DHT22;61938;48.652;9.292;2024-02-28T03:48:36;7.30;99.90
73643;DHT22;61938;48.652;9.292;2024-02-28T03:51:01;7.30;99.90
73643;DHT22;61938;48.652;9.292;2024-02-28T03:53:27;7.30;99.90
73643;DHT22;61938;48.652;9.292;2024-02-28T03:55:52;7.30;99.90
73643;DHT22;61938;48.652;9.292;2024-02-28T03:58:18;7.30;99.90
73643;DHT22;61938;48.652;9.292;2024-02-28T04:00:43;7.30;99.90
73643;DHT22;61938;48.652;9.292;2024-02-28T04:03:12;7.30;99.90
73643;DHT22;61938;48.652;9.292;2024-02-28T04:05:39;7.30;99.90
73643;DHT22;61938;48.652;9.292;2024-02-28T04:08:05;7.30;99.90
73643;DHT22;61938;48.652;9.292;2024-02-28T04:10:30;7.30;99.90
73643;DHT22;61938;48.652;9.292;2024-02-28T04:12:56;7.30;99.90
73643;DHT22;61938;48.652;9.292;2024-02-28T04:15:22;7.30;99.90
73643;DHT22;61938;48.652;9.292;2024-02-28T04:17:47;7.30;99.90
73643;DHT22;61938;48.652;9.292;2024-02-28T04:20:13;7.30;99.90
73643;DHT22;61938;48.652;9.292;2024-02-28T04:22:39;7.30;99.90
73643;DHT22;61938;48.652;9.292;2024-02-28T04:25:06;7.20;99.90
73643;DHT22;61938;48.652;9.292;2024-02-28T04:27:33;7.20;99.90
73643;DHT22;61938;48.652;9.292;2024-02-28T04:29:58;7.20;99.90
73643;DHT22;61938;48.652;9.292;2024-02-28T04:32:24;7.20;99.90
73643;DHT22;61938;48.652;9.292;2024-02-28T04:34:49;7.20;99.90
73643;DHT22;61938;48.652;9.292;2024-02-28T04:37:15;7.20;99.90
73643;DHT22;61938;48.652;9.292;2024-02-28T04:39:47;7.30;99.90
73643;DHT22;61938;48.652;9.292;2024-02-28T04:42:13;7.20;99.90
73643;DHT22;61938;48.652;9.292;2024-02-28T04:44:39;7.20;99.90
73643;DHT22;61938;48.652;9.292;2024-02-28T04:47:04;7.20;99.90
73643;DHT22;61938;48.652;9.292;2024-02-28T04:49:30;7.20;99.90
73643;DHT22;61938;48.652;9.292;2024-02-28T04:51:56;7.20;99.90
73643;DHT22;61938;48.652;9.292;2024-02-28T04:54:21;7.20;99.90
73643;DHT22;61938;48.652;9.292;2024-02-28T04:56:47;7.20;99.90
73643;DHT22;61938;48.652;9.292;2024-02-28T04:59:20;7.20;99.90
73643;DHT22;61938;48.652;9.292;2024-02-28T05:01:52;7.20;99.90
73643;DHT22;61938;48.652;9.292;2024-02-28T05:04:18;7.20;99.90
73643;DHT22;61938;48.652;9.292;2024-02-28T05:06:44;7.20;99.90
73643;DHT22;61938;48.652;9.292;2024-02-28T05:09:10;7.20;99.90
73643;DHT22;61938;48.652;9.292;2024-02-28T05:11:35;7.20;99.90
73643;DHT22;61938;48.652;9.292;2024-02-28T05:14:01;7.20;99.90
73643;DHT22;61938;48.652;9.292;2024-02-28T05:16:26;7.20;99.90
73643;DHT22;61938;48.652;9.292;2024-02-28T05:18:52;7.20;99.90
73643;DHT22;61938;48.652;9.292;2024-02-28T05:21:17;7.20;99.90
73643;DHT22;61938;48.652;9.292;2024-02-28T05:23:43;7.10;99.90
73643;DHT22;61938;48.652;9.292;2024-02-28T05:26:08;7.10;99.90
73643;DHT22;61938;48.652;9.292;2024-02-28T05:28:40;7.10;99.90
73643;DHT22;61938;48.652;9.292;2024-02-28T05:31:25;7.10;99.90
73643;DHT22;61938;48.652;9.292;2024-02-28T05:33:52;7.10;99.90
73643;DHT22;61938;48.652;9.292;2024-02-28T05:36:17;7.10;99.90
73643;DHT22;61938;48.652;9.292;2024-02-28T05:38:44;7.10;99.90
73643;DHT22;61938;48.652;9.292;2024-02-28T05:41:09;7.10;99.90
73643;DHT22;61938;48.652;9.292;2024-02-28T05:43:37;7.10;99.90
73643;DHT22;61938;48.652;9.292;2024-02-28T05:46:03;7.10;99.90
73643;DHT22;61938;48.652;9.292;2024-02-28T05:48:29;6.70;99.90
73643;DHT22;61938;48.652;9.292;2024-02-28T05:50:54;7.10;99.90
73643;DHT22;61938;48.652;9.292;2024-02-28T05:53:20;7.10;99.90
73643;DHT22;61938;48.652;9.292;2024-02-28T05:55:53;7.10;99.90
73643;DHT22;61938;48.652;9.292;2024-02-28T05:58:19;7.10;99.90
73643;DHT22;61938;48.652;9.292;2024-02-28T06:00:45;7.00;99.90
73643;DHT22;61938;48.652;9.292;2024-02-28T06:03:10;7.00;99.90
73643;DHT22;61938;48.652;9.292;2024-02-28T06:05:36;7.00;99.90
73643;DHT22;61938;48.652;9.292;2024-02-28T06:08:01;7.00;99.90
73643;DHT22;61938;48.652;9.292;2024-02-28T06:10:27;7.00;99.90
73643;DHT22;61938;48.652;9.292;2024-02-28T06:12:52;7.00;99.90
73643;DHT22;61938;48.652;9.292;2024-02-28T06:15:18;7.00;99.90
73643;DHT22;61938;48.652;9.292;2024-02-28T06:17:44;7.00;99.90
73643;DHT22;61938;48.652;9.292;2024-02-28T06:20:09;7.00;99.90
73643;DHT22;61938;48.652;9.292;2024-02-28T06:22:35;7.00;99.90
73643;DHT22;61938;48.652;9.292;2024-02-28T06:25:00;7.00;99.90
73643;DHT22;61938;48.652;9.292;2024-02-28T06:27:26;7.00;99.90
73643;DHT22;61938;48.652;9.292;2024-02-28T06:29:52;7.00;99.90
73643;DHT22;61938;48.652;9.292;2024-02-28T06:32:18;7.00;99.90
73643;DHT22;61938;48.652;9.292;2024-02-28T06:34:43;6.90;99.90
73643;DHT22;61938;48.652;9.292;2024-02-28T06:37:09;7.00;99.90
73643;DHT22;61938;48.652;9.292;2024-02-28T06:39:34;7.00;99.90
73643;DHT22;61938;48.652;9.292;2024-02-28T06:42:00;6.90;99.90
73643;DHT22;61938;48.652;9.292;2024-02-28T06:44:25;6.90;99.90
73643;DHT22;61938;48.652;9.292;2024-02-28T06:46:51;7.00;99.90
73643;DHT22;61938;48.652;9.292;2024-02-28T06:49:16;6.90;99.90
73643;DHT22;61938;48.652;9.292;2024-02-28T06:51:44;6.90;99.90
73643;DHT22;61938;48.652;9.292;2024-02-28T06:54:09;6.90;99.90
73643;DHT22;61938;48.652;9.292;2024-02-28T06:56:35;6.90;99.90
73643;DHT22;61938;48.652;9.292;2024-02-28T06:59:01;6.90;99.90
73643;DHT22;61938;48.652;9.292;2024-02-28T07:01:27;6.90;99.90
73643;DHT22;61938;48.652;9.292;2024-02-28T07:03:53;6.90;99.90
73643;DHT22;61938;48.652;9.292;2024-02-28T07:06:18;6.90;99.90
73643;DHT22;61938;48.652;9.292;2024-02-28T07:08:43;6.90;99.90
73643;DHT22;61938;48.652;9.292;2024-02-28T07:11:15;6.90;99.90
73643;DHT22;61938;48.652;9.292;2024-02-28T07:13:41;6.90;99.90
73643;DHT22;61938;48.652;9.292;2024-02-28T07:16:07;6.90;99.90
73643;DHT22;61938;48.652;9.292;2024-02-28T07:18:33;6.90;99.90
73643;DHT22;61938;48.652;9.292;2024-02-28T07:20:58;6.90;99.90
73643;DHT22;61938;48.652;9.292;2024-02-28T07:23:24;6.90;99.90
73643;DHT22;61938;48.652;9.292;2024-02-28T07:25:49;6.90;99.90
73643;DHT22;61938;48.652;9.292;2024-02-28T07:28:15;6.90;99.90
73643;DHT22;61938;48.652;9.292;2024-02-28T07:30:40;6.90;99.90
73643;DHT22;61938;48.652;9.292;2024-02-28T07:33:06;6.90;99.90
73643;DHT22;61938;48.652;9.292;2024-02-28T07:35:32;6.90;99.90
73643;DHT22;61938;48.652;9.292;2024-02-28T07:37:57;6.90;99.90
73643;DHT22;61938;48.652;9.292;2024-02-28T07:40:23;6.90;99.90
73643;DHT22;61938;48.652;9.292;2024-02-28T07:42:48;6.90;99.90
73643;DHT22;61938;48.652;9.292;2024-02-28T07:45:14;6.90;99.90
73643;DHT22;61938;48.652;9.292;2024-02-28T07:47:39;6.90;99.90
73643;DHT22;61938;48.652;9.292;2024-02-28T07:50:06;6.90;99.90
73643;DHT22;61938;48.652;9.292;2024-02-28T07:52:32;6.90;99.90
73643;DHT22;61938;48.652;9.292;2024-02-28T07:55:00;6.90;99.90
73643;DHT22;61938;48.652;9.292;2024-02-28T07:57:26;6.90;99.90
73643;DHT22;61938;48.652;9.292;2024-02-28T07:59:51;6.90;99.90
73643;DHT22;61938;48.652;9.292;2024-02-28T08:02:17;6.90;99.90
73643;DHT22;61938;48.652;9.292;2024-02-28T08:04:45;6.90;99.90
73643;DHT22;61938;48.652;9.292;2024-02-28T08:07:10;6.90;99.90
73643;DHT22;61938;48.652;9.292;2024-02-28T08:09:36;6.90;99.90
73643;DHT22;61938;48.652;9.292;2024-02-28T08:12:01;6.90;99.90
73643;DHT22;61938;48.652;9.292;2024-02-28T08:14:27;6.90;99.90
73643;DHT22;61938;48.652;9.292;2024-02-28T08:16:53;6.90;99.90
73643;DHT22;61938;48.652;9.292;2024-02-28T08:19:19;6.90;99.90
73643;DHT22;61938;48.652;9.292;2024-02-28T08:21:44;6.90;99.90
73643;DHT22;61938;48.652;9.292;2024-02-28T08:24:10;6.90;99.90
73643;DHT22;61938;48.652;9.292;2024-02-28T08:26:35;6.90;99.90
73643;DHT22;61938;48.652;9.292;2024-02-28T08:29:01;6.90;99.90
73643;DHT22;61938;48.652;9.292;2024-02-28T08:31:28;6.90;99.90
73643;DHT22;61938;48.652;9.292;2024-02-28T08:33:53;6.90;99.90
73643;DHT22;61938;48.652;9.292;2024-02-28T08:36:20;6.90;99.90
73643;DHT22;61938;48.652;9.292;2024-02-28T08:38:46;6.90;99.90
73643;DHT22;61938;48.652;9.292;2024-02-28T08:41:11;6.90;99.90
73643;DHT22;61938;48.652;9.292;2024-02-28T08:43:40;6.90;99.90
73643;DHT22;61938;48.652;9.292;2024-02-28T08:46:06;6.90;99.90
73643;DHT22;61938;48.652;9.292;2024-02-28T08:48:34;6.90;99.90
73643;DHT22;61938;48.652;9.292;2024-02-28T08:51:03;6.90;99.90
73643;DHT22;61938;48.652;9.292;2024-02-28T08:53:28;7.00;99.90
73643;DHT22;61938;48.652;9.292;2024-02-28T08:55:54;6.90;99.90
73643;DHT22;61938;48.652;9.292;2024-02-28T08:58:19;7.00;99.90
73643;DHT22;61938;48.652;9.292;2024-02-28T09:00:45;7.00;99.90
73643;DHT22;61938;48.652;9.292;2024-02-28T09:03:10;7.00;99.90
73643;DHT22;61938;48.652;9.292;2024-02-28T09:05:36;6.90;99.90
73643;DHT22;61938;48.652;9.292;2024-02-28T09:08:01;7.00;99.90
73643;DHT22;61938;48.652;9.292;2024-02-28T09:10:27;7.00;99.90
73643;DHT22;61938;48.652;9.292;2024-02-28T09:12:54;7.00;99.90
73643;DHT22;61938;48.652;9.292;2024-02-28T09:15:20;7.00;99.90
73643;DHT22;61938;48.652;9.292;2024-02-28T09:17:45;7.00;99.90
73643;DHT22;61938;48.652;9.292;2024-02-28T09:20:11;7.00;99.90
73643;DHT22;61938;48.652;9.292;2024-02-28T09:22:37;7.00;99.90
73643;DHT22;61938;48.652;9.292;2024-02-28T09:25:03;7.00;99.90
73643;DHT22;61938;48.652;9.292;2024-02-28T09:27:37;7.00;99.90
73643;DHT22;61938;48.652;9.292;2024-02-28T09:30:03;7.00;99.90
73643;DHT22;61938;48.652;9.292;2024-02-28T09:32:28;7.00;99.90
73643;DHT22;61938;48.652;9.292;2024-02-28T09:34:54;7.00;99.90
73643;DHT22;61938;48.652;9.292;2024-02-28T09:37:19;7.00;99.90
73643;DHT22;61938;48.652;9.292;2024-02-28T09:39:49;7.00;99.90
73643;DHT22;61938;48.652;9.292;2024-02-28T09:42:15;7.00;99.90
73643;DHT22;61938;48.652;9.292;2024-02-28T09:44:43;7.00;99.90
73643;DHT22;61938;48.652;9.292;2024-02-28T09:47:08;7.00;99.90
73643;DHT22;61938;48.652;9.292;2024-02-28T09:49:34;7.00;99.90
73643;DHT22;61938;48.652;9.292;2024-02-28T09:52:03;7.00;99.90
73643;DHT22;61938;48.652;9.292;2024-02-28T09:54:28;7.00;99.90
73643;DHT22;61938;48.652;9.292;2024-02-28T09:56:55;7.00;99.90
73643;DHT22;61938;48.652;9.292;2024-02-28T09:59:21;7.00;99.90
73643;DHT22;61938;48.652;9.292;2024-02-28T10:01:55;7.00;99.90
73643;DHT22;61938;48.652;9.292;2024-02-28T10:04:21;7.00;99.90
73643;DHT22;61938;48.652;9.292;2024-02-28T10:06:48;7.00;99.90
73643;DHT22;61938;48.652;9.292;2024-02-28T10:09:15;7.00;99.90
73643;DHT22;61938;48.652;9.292;2024-02-28T10:11:41;7.00;99.90
73643;DHT22;61938;48.652;9.292;2024-02-28T10:14:09;7.00;99.90
73643;DHT22;61938;48.652;9.292;2024-02-28T10:16:34;7.00;99.90
73643;DHT22;61938;48.652;9.292;2024-02-28T10:19:00;7.00;99.90
73643;DHT22;61938;48.652;9.292;2024-02-28T10:21:25;7.00;99.90
73643;DHT22;61938;48.652;9.292;2024-02-28T10:23:51;7.10;99.90
73643;DHT22;61938;48.652;9.292;2024-02-28T10:26:17;7.10;99.90
73643;DHT22;61938;48.652;9.292;2024-02-28T10:28:43;7.10;99.90
73643;DHT22;61938;48.652;9.292;2024-02-28T10:31:10;7.10;99.90
73643;DHT22;61938;48.652;9.292;2024-02-28T10:33:36;7.10;99.90
73643;DHT22;61938;48.652;9.292;2024-02-28T10:36:05;7.10;99.90
73643;DHT22;61938;48.652;9.292;2024-02-28T10:38:31;7.10;99.90
73643;DHT22;61938;48.652;9.292;2024-02-28T10:41:08;7.10;99.90
73643;DHT22;61938;48.652;9.292;2024-02-28T10:43:34;7.10;99.90
73643;DHT22;61938;48.652;9.292;2024-02-28T10:46:00;7.10;99.90
73643;DHT22;61938;48.652;9.292;2024-02-28T10:48:33;7.10;99.90
73643;DHT22;61938;48.652;9.292;2024-02-28T10:51:02;7.10;99.90
73643;DHT22;61938;48.652;9.292;2024-02-28T10:53:36;7.10;99.90
73643;DHT22;61938;48.652;9.292;2024-02-28T10:56:03;7.10;99.90
73643;DHT22;61938;48.652;9.292;2024-02-28T10:58:36;7.20;99.90
73643;DHT22;61938;48.652;9.292;2024-02-28T11:01:03;7.20;99.90
73643;DHT22;61938;48.652;9.292;2024-02-28T11:03:30;7.20;99.90
73643;DHT22;61938;48.652;9.292;2024-02-28T11:05:55;7.20;99.90
73643;DHT22;61938;48.652;9.292;2024-02-28T11:08:26;7.20;99.90
73643;DHT22;61938;48.652;9.292;2024-02-28T11:11:03;7.20;99.90
73643;DHT22;61938;48.652;9.292;2024-02-28T11:13:29;7.20;99.90
73643;DHT22;61938;48.652;9.292;2024-02-28T11:16:07;7.20;99.90
73643;DHT22;61938;48.652;9.292;2024-02-28T11:18:33;7.20;99.90
73643;DHT22;61938;48.652;9.292;2024-02-28T11:20:58;7.20;99.90
73643;DHT22;61938;48.652;9.292;2024-02-28T11:23:24;7.20;99.90
73643;DHT22;61938;48.652;9.292;2024-02-28T11:25:49;7.20;99.90
73643;DHT22;61938;48.652;9.292;2024-02-28T11:28:15;7.10;99.90
73643;DHT22;61938;48.652;9.292;2024-02-28T11:30:41;7.10;99.90
73643;DHT22;61938;48.652;9.292;2024-02-28T11:33:07;7.10;99.90
73643;DHT22;61938;48.652;9.292;2024-02-28T11:35:34;7.10;99.90
73643;DHT22;61938;48.652;9.292;2024-02-28T11:38:00;7.20;99.90
73643;DHT22;61938;48.652;9.292;2024-02-28T11:40:26;7.20;99.90
73643;DHT22;61938;48.652;9.292;2024-02-28T11:42:52;7.20;99.90
73643;DHT22;61938;48.652;9.292;2024-02-28T11:45:19;7.20;99.90
73643;DHT22;61938;48.652;9.292;2024-02-28T11:47:45;7.20;99.90
73643;DHT22;61938;48.652;9.292;2024-02-28T11:50:11;7.30;99.90
73643;DHT22;61938;48.652;9.292;2024-02-28T11:52:36;7.30;99.90
73643;DHT22;61938;48.652;9.292;2024-02-28T11:55:03;7.30;99.90
73643;DHT22;61938;48.652;9.292;2024-02-28T11:57:28;7.30;99.90
73643;DHT22;61938;48.652;9.292;2024-02-28T11:59:56;7.30;99.90
73643;DHT22;61938;48.652;9.292;2024-02-28T12:02:22;7.30;99.90
73643;DHT22;61938;48.652;9.292;2024-02-28T12:05:00;7.30;99.90
73643;DHT22;61938;48.652;9.292;2024-02-28T12:07:26;7.30;99.90
73643;DHT22;61938;48.652;9.292;2024-02-28T12:09:54;7.40;99.90
73643;DHT22;61938;48.652;9.292;2024-02-28T12:12:19;7.40;99.90
73643;DHT22;61938;48.652;9.292;2024-02-28T12:14:46;7.30;99.90
73643;DHT22;61938;48.652;9.292;2024-02-28T12:17:16;7.40;99.90
73643;DHT22;61938;48.652;9.292;2024-02-28T12:19:41;7.40;99.90
73643;DHT22;61938;48.652;9.292;2024-02-28T12:22:08;7.40;99.90
73643;DHT22;61938;48.652;9.292;2024-02-28T12:24:34;7.40;99.90
73643;DHT22;61938;48.652;9.292;2024-02-28T12:27:00;7.40;99.90
73643;DHT22;61938;48.652;9.292;2024-02-28T12:29:25;7.40;99.90
73643;DHT22;61938;48.652;9.292;2024-02-28T12:31:51;7.40;99.90
73643;DHT22;61938;48.652;9.292;2024-02-28T12:34:16;7.40;99.90
73643;DHT22;61938;48.652;9.292;2024-02-28T12:36:42;7.40;99.90
73643;DHT22;61938;48.652;9.292;2024-02-28T12:39:08;7.40;99.90
73643;DHT22;61938;48.652;9.292;2024-02-28T12:41:39;7.40;99.90
73643;DHT22;61938;48.652;9.292;2024-02-28T12:44:05;7.40;99.90
73643;DHT22;61938;48.652;9.292;2024-02-28T12:46:32;7.50;99.90
73643;DHT22;61938;48.652;9.292;2024-02-28T12:48:58;7.50;99.90
73643;DHT22;61938;48.652;9.292;2024-02-28T12:51:41;7.50;99.90
73643;DHT22;61938;48.652;9.292;2024-02-28T12:54:08;7.50;99.90
73643;DHT22;61938;48.652;9.292;2024-02-28T12:56:35;7.50;99.90
73643;DHT22;61938;48.652;9.292;2024-02-28T12:59:00;7.40;99.90
73643;DHT22;61938;48.652;9.292;2024-02-28T13:01:26;7.50;99.90
73643;DHT22;61938;48.652;9.292;2024-02-28T13:03:52;7.50;99.90
73643;DHT22;61938;48.652;9.292;2024-02-28T13:06:18;7.50;99.90
73643;DHT22;61938;48.652;9.292;2024-02-28T13:08:43;7.50;99.90
73643;DHT22;61938;48.652;9.292;2024-02-28T13:11:09;7.50;99.90
73643;DHT22;61938;48.652;9.292;2024-02-28T13:13:35;7.50;99.90
73643;DHT22;61938;48.652;9.292;2024-02-28T13:16:01;7.50;99.90
73643;DHT22;61938;48.652;9.292;2024-02-28T13:18:27;7.40;99.90
73643;DHT22;61938;48.652;9.292;2024-02-28T13:20:52;7.50;99.90
73643;DHT22;61938;48.652;9.292;2024-02-28T13:23:18;7.40;99.90
73643;DHT22;61938;48.652;9.292;2024-02-28T13:25:46;7.50;99.90
73643;DHT22;61938;48.652;9.292;2024-02-28T13:28:12;7.40;99.90
73643;DHT22;61938;48.652;9.292;2024-02-28T13:30:38;7.50;99.90
73643;DHT22;61938;48.652;9.292;2024-02-28T13:33:04;7.50;99.90
73643;DHT22;61938;48.652;9.292;2024-02-28T13:35:30;7.50;99.90
73643;DHT22;61938;48.652;9.292;2024-02-28T13:37:56;7.50;99.90
73643;DHT22;61938;48.652;9.292;2024-02-28T13:40:28;7.50;99.90
73643;DHT22;61938;48.652;9.292;2024-02-28T13:42:53;7.50;99.90
73643;DHT22;61938;48.652;9.292;2024-02-28T13:45:19;7.50;99.90
73643;DHT22;61938;48.652;9.292;2024-02-28T13:47:44;7.50;99.90
73643;DHT22;61938;48.652;9.292;2024-02-28T13:50:11;7.50;99.90
73643;DHT22;61938;48.652;9.292;2024-02-28T13:52:37;7.50;99.90
73643;DHT22;61938;48.652;9.292;2024-02-28T13:55:02;7.50;99.90
73643;DHT22;61938;48.652;9.292;2024-02-28T13:57:28;7.50;99.90
73643;DHT22;61938;48.652;9.292;2024-02-28T14:00:01;7.50;99.90
73643;DHT22;61938;48.652;9.292;2024-02-28T14:02:30;7.70;99.90
73643;DHT22;61938;48.652;9.292;2024-02-28T14:04:56;7.50;99.90
73643;DHT22;61938;48.652;9.292;2024-02-28T14:07:21;7.50;99.90
73643;DHT22;61938;48.652;9.292;2024-02-28T14:09:47;7.50;99.90
73643;DHT22;61938;48.652;9.292;2024-02-28T14:12:13;7.50;99.90
73643;DHT22;61938;48.652;9.292;2024-02-28T14:14:39;7.50;99.90
73643;DHT22;61938;48.652;9.292;2024-02-28T14:17:05;7.50;99.90
73643;DHT22;61938;48.652;9.292;2024-02-28T14:19:31;7.50;99.90
73643;DHT22;61938;48.652;9.292;2024-02-28T14:21:56;7.50;99.90
73643;DHT22;61938;48.652;9.292;2024-02-28T14:24:22;7.50;99.90
73643;DHT22;61938;48.652;9.292;2024-02-28T14:26:47;7.40;99.90
73643;DHT22;61938;48.652;9.292;2024-02-28T14:29:13;7.50;99.90
73643;DHT22;61938;48.652;9.292;2024-02-28T14:31:39;7.50;99.90
73643;DHT22;61938;48.652;9.292;2024-02-28T14:34:04;7.50;99.90
73643;DHT22;61938;48.652;9.292;2024-02-28T14:36:30;7.50;99.90
73643;DHT22;61938;48.652;9.292;2024-02-28T14:38:56;7.50;99.90
73643;DHT22;61938;48.652;9.292;2024-02-28T14:41:22;7.50;99.90
73643;DHT22;61938;48.652;9.292;2024-02-28T14:43:48;7.50;99.90
73643;DHT22;61938;48.652;9.292;2024-02-28T14:46:14;7.40;99.90
73643;DHT22;61938;48.652;9.292;2024-02-28T14:48:42;7.50;99.90
73643;DHT22;61938;48.652;9.292;2024-02-28T14:51:08;7.50;99.90
73643;DHT22;61938;48.652;9.292;2024-02-28T14:53:34;7.50;99.90
73643;DHT22;61938;48.652;9.292;2024-02-28T14:56:00;7.40;99.90
73643;DHT22;61938;48.652;9.292;2024-02-28T14:58:25;7.40;99.90
73643;DHT22;61938;48.652;9.292;2024-02-28T15:00:51;7.40;99.90
73643;DHT22;61938;48.652;9.292;2024-02-28T15:03:16;7.40;99.90
73643;DHT22;61938;48.652;9.292;2024-02-28T15:05:42;7.40;99.90
73643;DHT22;61938;48.652;9.292;2024-02-28T15:08:09;7.40;99.90
73643;DHT22;61938;48.652;9.292;2024-02-28T15:10:35;7.40;99.90
73643;DHT22;61938;48.652;9.292;2024-02-28T15:13:00;7.40;99.90
73643;DHT22;61938;48.652;9.292;2024-02-28T15:15:26;7.40;99.90
73643;DHT22;61938;48.652;9.292;2024-02-28T15:17:53;7.40;99.90
73643;DHT22;61938;48.652;9.292;2024-02-28T15:20:18;7.30;99.90
73643;DHT22;61938;48.652;9.292;2024-02-28T15:22:45;7.40;99.90
73643;DHT22;61938;48.652;9.292;2024-02-28T15:25:11;7.40;99.90
73643;DHT22;61938;48.652;9.292;2024-02-28T15:27:37;7.40;99.90
73643;DHT22;61938;48.652;9.292;2024-02-28T15:30:03;7.30;99.90
73643;DHT22;61938;48.652;9.292;2024-02-28T15:32:30;7.30;99.90
73643;DHT22;61938;48.652;9.292;2024-02-28T15:34:56;7.30;99.90
73643;DHT22;61938;48.652;9.292;2024-02-28T15:37:22;7.30;99.90
73643;DHT22;61938;48.652;9.292;2024-02-28T15:39:47;7.20;99.90